アラート の空港の天気 - METARとTAF

Alert Airport ( CYLT / YLT ) - カナダ ヌナブト準州アラート
飛行場実況気象(Metar)
観測時間04/26 15:00 EDT (04/26 19:00 UTC)
風向・風速西北西 1m/s
視程10km以上
天気現象
少しの雲 雲底高度 2130m
全天の8割程度の雲 雲底高度 6100m
気温-21℃
湿度70%
気圧1011.4hPa
METARCYLT 261900Z 29002KT 15SM FEW070 BKN200 M21/M25 A2985 RMK AC1CI2 LAST OBS/NEXT 271200 UTC AC TR SLP114
過去の天気等 Google飛行場航空写真 Wunderground天気予報

過去48時間のMETAR

飛行場予報(TAF)
発表時間: 4/26 13:30 EDT (4/26 17:30 UTC)
予報対象時間: 26日14時 EDT ~ 27日2時 EDT
風向・風速不定 2m/s
視程10km以上
少しの雲 雲底高度 2,130m
全天の8割程度の雲 雲底高度 6,100m
26日14時 EDT ~ 26日16時 EDT に徐々に
風向・風速南西 6m/s
TAF CYLT 261730Z 2618/2706 VRB03KT P6SM FEW070 BKN200
BECMG 2618/2620 23012KT RMK NXT FCST BY 270000Z